sensor_id;sensor_type;location;lat;lon;timestamp;temperature;humidity
1259;DHT22;619;51.472;6.628;2024-03-02T00:01:10;14.80;62.50
1259;DHT22;619;51.472;6.628;2024-03-02T00:03:39;14.90;62.40
1259;DHT22;619;51.472;6.628;2024-03-02T00:06:06;14.90;62.40
1259;DHT22;619;51.472;6.628;2024-03-02T00:08:32;14.90;62.50
1259;DHT22;619;51.472;6.628;2024-03-02T00:10:59;14.90;62.50
1259;DHT22;619;51.472;6.628;2024-03-02T00:13:26;14.90;62.40
1259;DHT22;619;51.472;6.628;2024-03-02T00:15:52;14.90;62.40
1259;DHT22;619;51.472;6.628;2024-03-02T00:18:20;14.90;62.40
1259;DHT22;619;51.472;6.628;2024-03-02T00:20:46;14.90;62.50
1259;DHT22;619;51.472;6.628;2024-03-02T00:23:15;15.00;62.60
1259;DHT22;619;51.472;6.628;2024-03-02T00:25:56;15.00;62.50
1259;DHT22;619;51.472;6.628;2024-03-02T00:28:31;15.00;62.50
1259;DHT22;619;51.472;6.628;2024-03-02T00:31:12;15.00;62.40
1259;DHT22;619;51.472;6.628;2024-03-02T00:33:47;15.10;62.40
1259;DHT22;619;51.472;6.628;2024-03-02T00:36:21;15.20;62.40
1259;DHT22;619;51.472;6.628;2024-03-02T00:38:48;15.20;62.20
1259;DHT22;619;51.472;6.628;2024-03-02T00:41:21;15.30;62.20
1259;DHT22;619;51.472;6.628;2024-03-02T00:44:06;15.30;62.10
1259;DHT22;619;51.472;6.628;2024-03-02T00:46:38;15.40;62.10
1259;DHT22;619;51.472;6.628;2024-03-02T00:49:12;15.40;62.10
1259;DHT22;619;51.472;6.628;2024-03-02T00:51:47;15.40;61.90
1259;DHT22;619;51.472;6.628;2024-03-02T00:54:14;15.40;61.90
1259;DHT22;619;51.472;6.628;2024-03-02T00:56:41;15.50;61.90
1259;DHT22;619;51.472;6.628;2024-03-02T00:59:07;15.50;61.80
1259;DHT22;619;51.472;6.628;2024-03-02T01:01:34;15.50;61.80
1259;DHT22;619;51.472;6.628;2024-03-02T01:04:00;15.50;61.80
1259;DHT22;619;51.472;6.628;2024-03-02T01:06:25;15.60;61.80
1259;DHT22;619;51.472;6.628;2024-03-02T01:08:53;15.60;61.70
1259;DHT22;619;51.472;6.628;2024-03-02T01:11:21;15.70;61.80
1259;DHT22;619;51.472;6.628;2024-03-02T01:13:47;15.70;61.70
1259;DHT22;619;51.472;6.628;2024-03-02T01:16:13;15.70;61.50
1259;DHT22;619;51.472;6.628;2024-03-02T01:18:39;15.70;61.50
1259;DHT22;619;51.472;6.628;2024-03-02T01:21:05;15.70;61.40
1259;DHT22;619;51.472;6.628;2024-03-02T01:23:32;15.70;61.40
1259;DHT22;619;51.472;6.628;2024-03-02T01:25:58;15.70;61.40
1259;DHT22;619;51.472;6.628;2024-03-02T01:28:24;15.80;61.40
1259;DHT22;619;51.472;6.628;2024-03-02T01:30:49;15.70;61.20
1259;DHT22;619;51.472;6.628;2024-03-02T01:33:19;15.80;61.30
1259;DHT22;619;51.472;6.628;2024-03-02T01:35:49;15.80;61.20
1259;DHT22;619;51.472;6.628;2024-03-02T01:38:15;15.80;61.10
1259;DHT22;619;51.472;6.628;2024-03-02T01:40:42;15.80;61.00
1259;DHT22;619;51.472;6.628;2024-03-02T01:43:09;15.70;61.00
1259;DHT22;619;51.472;6.628;2024-03-02T01:45:35;15.70;61.80
1259;DHT22;619;51.472;6.628;2024-03-02T01:48:04;15.70;61.10
1259;DHT22;619;51.472;6.628;2024-03-02T01:50:35;15.80;61.30
1259;DHT22;619;51.472;6.628;2024-03-02T01:53:01;15.80;61.30
1259;DHT22;619;51.472;6.628;2024-03-02T01:55:28;15.80;61.20
1259;DHT22;619;51.472;6.628;2024-03-02T01:57:56;15.80;61.20
1259;DHT22;619;51.472;6.628;2024-03-02T02:00:22;15.90;61.20
1259;DHT22;619;51.472;6.628;2024-03-02T02:02:50;15.90;61.10
1259;DHT22;619;51.472;6.628;2024-03-02T02:05:15;15.90;61.10
1259;DHT22;619;51.472;6.628;2024-03-02T02:07:44;15.90;60.90
1259;DHT22;619;51.472;6.628;2024-03-02T02:10:10;15.90;60.80
1259;DHT22;619;51.472;6.628;2024-03-02T02:12:39;15.90;60.70
1259;DHT22;619;51.472;6.628;2024-03-02T02:15:31;16.00;60.70
1259;DHT22;619;51.472;6.628;2024-03-02T02:17:58;16.00;60.60
1259;DHT22;619;51.472;6.628;2024-03-02T02:20:24;16.00;60.50
1259;DHT22;619;51.472;6.628;2024-03-02T02:23:03;16.00;60.40
1259;DHT22;619;51.472;6.628;2024-03-02T02:25:30;16.10;60.60
1259;DHT22;619;51.472;6.628;2024-03-02T02:27:57;16.10;60.60
1259;DHT22;619;51.472;6.628;2024-03-02T02:30:26;16.10;60.50
1259;DHT22;619;51.472;6.628;2024-03-02T02:32:54;16.10;60.60
1259;DHT22;619;51.472;6.628;2024-03-02T02:35:22;16.10;60.50
1259;DHT22;619;51.472;6.628;2024-03-02T02:37:50;16.20;60.60
1259;DHT22;619;51.472;6.628;2024-03-02T02:40:16;16.20;60.60
1259;DHT22;619;51.472;6.628;2024-03-02T02:42:44;16.20;60.50
1259;DHT22;619;51.472;6.628;2024-03-02T02:45:10;16.30;60.60
1259;DHT22;619;51.472;6.628;2024-03-02T02:47:36;16.30;60.40
1259;DHT22;619;51.472;6.628;2024-03-02T02:50:03;16.30;60.20
1259;DHT22;619;51.472;6.628;2024-03-02T02:52:33;16.30;60.10
1259;DHT22;619;51.472;6.628;2024-03-02T02:55:01;16.30;60.10
1259;DHT22;619;51.472;6.628;2024-03-02T02:57:28;16.30;60.00
1259;DHT22;619;51.472;6.628;2024-03-02T02:59:56;16.30;60.00
1259;DHT22;619;51.472;6.628;2024-03-02T03:02:24;16.30;59.90
1259;DHT22;619;51.472;6.628;2024-03-02T03:04:49;16.30;59.90
1259;DHT22;619;51.472;6.628;2024-03-02T03:07:17;16.40;60.10
1259;DHT22;619;51.472;6.628;2024-03-02T03:09:45;16.40;60.00
1259;DHT22;619;51.472;6.628;2024-03-02T03:12:11;16.40;60.00
1259;DHT22;619;51.472;6.628;2024-03-02T03:14:36;16.40;60.00
1259;DHT22;619;51.472;6.628;2024-03-02T03:17:02;16.30;59.80
1259;DHT22;619;51.472;6.628;2024-03-02T03:19:30;16.30;59.80
1259;DHT22;619;51.472;6.628;2024-03-02T03:21:56;16.30;59.90
1259;DHT22;619;51.472;6.628;2024-03-02T03:24:21;16.30;59.80
1259;DHT22;619;51.472;6.628;2024-03-02T03:26:47;16.30;59.90
1259;DHT22;619;51.472;6.628;2024-03-02T03:29:13;16.30;60.00
1259;DHT22;619;51.472;6.628;2024-03-02T03:31:38;16.20;60.10
1259;DHT22;619;51.472;6.628;2024-03-02T03:34:04;16.20;60.20
1259;DHT22;619;51.472;6.628;2024-03-02T03:36:32;16.20;60.30
1259;DHT22;619;51.472;6.628;2024-03-02T03:39:02;16.10;60.40
1259;DHT22;619;51.472;6.628;2024-03-02T03:41:28;16.10;60.70
1259;DHT22;619;51.472;6.628;2024-03-02T03:43:54;16.10;60.90
1259;DHT22;619;51.472;6.628;2024-03-02T03:46:20;16.00;61.00
1259;DHT22;619;51.472;6.628;2024-03-02T03:48:45;16.00;61.60
1259;DHT22;619;51.472;6.628;2024-03-02T03:51:11;16.00;61.30
1259;DHT22;619;51.472;6.628;2024-03-02T03:53:36;16.00;61.50
1259;DHT22;619;51.472;6.628;2024-03-02T03:56:02;16.00;61.60
1259;DHT22;619;51.472;6.628;2024-03-02T03:58:28;16.00;61.80
1259;DHT22;619;51.472;6.628;2024-03-02T04:00:56;16.00;61.90
1259;DHT22;619;51.472;6.628;2024-03-02T04:03:26;16.00;62.10
1259;DHT22;619;51.472;6.628;2024-03-02T04:05:52;15.90;62.10
1259;DHT22;619;51.472;6.628;2024-03-02T04:08:18;15.90;62.30
1259;DHT22;619;51.472;6.628;2024-03-02T04:10:45;15.90;62.50
1259;DHT22;619;51.472;6.628;2024-03-02T04:13:11;15.80;62.60
1259;DHT22;619;51.472;6.628;2024-03-02T04:15:37;15.80;63.60
1259;DHT22;619;51.472;6.628;2024-03-02T04:18:04;15.70;63.00
1259;DHT22;619;51.472;6.628;2024-03-02T04:20:30;15.70;63.20
1259;DHT22;619;51.472;6.628;2024-03-02T04:22:56;15.60;63.20
1259;DHT22;619;51.472;6.628;2024-03-02T04:25:23;15.60;63.30
1259;DHT22;619;51.472;6.628;2024-03-02T04:27:51;15.50;63.40
1259;DHT22;619;51.472;6.628;2024-03-02T04:30:19;15.50;63.60
1259;DHT22;619;51.472;6.628;2024-03-02T04:32:45;15.50;63.80
1259;DHT22;619;51.472;6.628;2024-03-02T04:35:12;15.50;63.90
1259;DHT22;619;51.472;6.628;2024-03-02T04:37:40;15.50;63.90
1259;DHT22;619;51.472;6.628;2024-03-02T04:40:06;15.40;63.90
1259;DHT22;619;51.472;6.628;2024-03-02T04:42:36;15.40;64.10
1259;DHT22;619;51.472;6.628;2024-03-02T04:45:02;15.40;64.30
1259;DHT22;619;51.472;6.628;2024-03-02T04:47:27;15.40;64.30
1259;DHT22;619;51.472;6.628;2024-03-02T04:49:53;15.40;64.30
1259;DHT22;619;51.472;6.628;2024-03-02T04:52:19;15.30;64.30
1259;DHT22;619;51.472;6.628;2024-03-02T04:54:47;15.30;64.40
1259;DHT22;619;51.472;6.628;2024-03-02T04:57:31;15.30;64.50
1259;DHT22;619;51.472;6.628;2024-03-02T04:59:56;15.20;64.70
1259;DHT22;619;51.472;6.628;2024-03-02T05:02:24;15.20;64.80
1259;DHT22;619;51.472;6.628;2024-03-02T05:04:50;15.20;64.80
1259;DHT22;619;51.472;6.628;2024-03-02T05:07:18;15.20;64.90
1259;DHT22;619;51.472;6.628;2024-03-02T05:09:43;15.20;65.00
1259;DHT22;619;51.472;6.628;2024-03-02T05:12:13;15.10;64.80
1259;DHT22;619;51.472;6.628;2024-03-02T05:14:57;15.10;65.60
1259;DHT22;619;51.472;6.628;2024-03-02T05:17:25;15.00;64.80
1259;DHT22;619;51.472;6.628;2024-03-02T05:19:51;15.00;64.90
1259;DHT22;619;51.472;6.628;2024-03-02T05:22:19;14.90;64.90
1259;DHT22;619;51.472;6.628;2024-03-02T05:24:47;14.90;65.10
1259;DHT22;619;51.472;6.628;2024-03-02T05:27:14;14.80;65.30
1259;DHT22;619;51.472;6.628;2024-03-02T05:29:40;14.80;65.60
1259;DHT22;619;51.472;6.628;2024-03-02T05:32:08;14.80;65.60
1259;DHT22;619;51.472;6.628;2024-03-02T05:34:33;14.70;65.60
1259;DHT22;619;51.472;6.628;2024-03-02T05:37:01;14.70;65.80
1259;DHT22;619;51.472;6.628;2024-03-02T05:39:26;14.70;65.90
1259;DHT22;619;51.472;6.628;2024-03-02T05:41:52;14.60;66.00
1259;DHT22;619;51.472;6.628;2024-03-02T05:44:18;14.60;66.20
1259;DHT22;619;51.472;6.628;2024-03-02T05:46:44;14.50;66.20
1259;DHT22;619;51.472;6.628;2024-03-02T05:49:12;14.50;67.20
1259;DHT22;619;51.472;6.628;2024-03-02T05:51:37;14.50;66.70
1259;DHT22;619;51.472;6.628;2024-03-02T05:54:03;14.50;66.80
1259;DHT22;619;51.472;6.628;2024-03-02T05:56:33;14.50;66.90
1259;DHT22;619;51.472;6.628;2024-03-02T05:58:59;14.50;67.00
1259;DHT22;619;51.472;6.628;2024-03-02T06:01:43;14.40;67.00
1259;DHT22;619;51.472;6.628;2024-03-02T06:04:09;14.50;67.10
1259;DHT22;619;51.472;6.628;2024-03-02T06:06:36;14.40;67.10
1259;DHT22;619;51.472;6.628;2024-03-02T06:09:03;14.40;67.10
1259;DHT22;619;51.472;6.628;2024-03-02T06:11:38;14.30;67.00
1259;DHT22;619;51.472;6.628;2024-03-02T06:14:08;14.40;67.10
1259;DHT22;619;51.472;6.628;2024-03-02T06:16:34;14.30;66.90
1259;DHT22;619;51.472;6.628;2024-03-02T06:19:02;14.30;66.90
1259;DHT22;619;51.472;6.628;2024-03-02T06:21:28;14.30;66.80
1259;DHT22;619;51.472;6.628;2024-03-02T06:23:53;14.30;66.80
1259;DHT22;619;51.472;6.628;2024-03-02T06:26:24;14.40;66.80
1259;DHT22;619;51.472;6.628;2024-03-02T06:28:52;14.40;66.70
1259;DHT22;619;51.472;6.628;2024-03-02T06:31:18;14.40;66.60
1259;DHT22;619;51.472;6.628;2024-03-02T06:33:43;14.50;66.70
1259;DHT22;619;51.472;6.628;2024-03-02T06:36:09;14.50;66.60
1259;DHT22;619;51.472;6.628;2024-03-02T06:38:35;14.50;66.50
1259;DHT22;619;51.472;6.628;2024-03-02T06:41:02;14.60;66.40
1259;DHT22;619;51.472;6.628;2024-03-02T06:43:30;14.60;66.30
1259;DHT22;619;51.472;6.628;2024-03-02T06:45:56;14.70;66.30
1259;DHT22;619;51.472;6.628;2024-03-02T06:48:24;14.70;66.10
1259;DHT22;619;51.472;6.628;2024-03-02T06:50:52;14.80;66.00
1259;DHT22;619;51.472;6.628;2024-03-02T06:53:18;14.90;66.10
1259;DHT22;619;51.472;6.628;2024-03-02T06:55:45;14.90;65.90
1259;DHT22;619;51.472;6.628;2024-03-02T06:58:14;15.00;65.70
1259;DHT22;619;51.472;6.628;2024-03-02T07:00:43;15.10;65.60
1259;DHT22;619;51.472;6.628;2024-03-02T07:03:09;15.20;65.50
1259;DHT22;619;51.472;6.628;2024-03-02T07:05:39;15.20;65.30
1259;DHT22;619;51.472;6.628;2024-03-02T07:08:05;15.30;65.20
1259;DHT22;619;51.472;6.628;2024-03-02T07:10:33;15.30;65.00
1259;DHT22;619;51.472;6.628;2024-03-02T07:12:59;15.40;64.90
1259;DHT22;619;51.472;6.628;2024-03-02T07:15:27;15.40;64.90
1259;DHT22;619;51.472;6.628;2024-03-02T07:17:52;15.40;64.70
1259;DHT22;619;51.472;6.628;2024-03-02T07:20:20;15.50;64.60
1259;DHT22;619;51.472;6.628;2024-03-02T07:22:46;15.60;64.50
1259;DHT22;619;51.472;6.628;2024-03-02T07:25:14;15.70;64.40
1259;DHT22;619;51.472;6.628;2024-03-02T07:27:42;15.70;64.10
1259;DHT22;619;51.472;6.628;2024-03-02T07:30:08;15.80;64.00
1259;DHT22;619;51.472;6.628;2024-03-02T07:32:34;15.80;63.90
1259;DHT22;619;51.472;6.628;2024-03-02T07:35:00;15.80;63.60
1259;DHT22;619;51.472;6.628;2024-03-02T07:37:29;15.90;63.60
1259;DHT22;619;51.472;6.628;2024-03-02T07:39:57;15.90;63.30
1259;DHT22;619;51.472;6.628;2024-03-02T07:42:23;15.90;63.00
1259;DHT22;619;51.472;6.628;2024-03-02T07:44:51;15.90;63.00
1259;DHT22;619;51.472;6.628;2024-03-02T07:47:17;16.00;62.80
1259;DHT22;619;51.472;6.628;2024-03-02T07:49:45;16.00;62.70
1259;DHT22;619;51.472;6.628;2024-03-02T07:52:13;16.10;62.70
1259;DHT22;619;51.472;6.628;2024-03-02T07:54:43;16.10;62.50
1259;DHT22;619;51.472;6.628;2024-03-02T07:57:11;16.10;62.40
1259;DHT22;619;51.472;6.628;2024-03-02T07:59:39;16.20;62.40
1259;DHT22;619;51.472;6.628;2024-03-02T08:02:05;16.10;62.00
1259;DHT22;619;51.472;6.628;2024-03-02T08:04:31;16.10;61.90
1259;DHT22;619;51.472;6.628;2024-03-02T08:06:59;16.10;62.00
1259;DHT22;619;51.472;6.628;2024-03-02T08:09:27;16.00;62.20
1259;DHT22;619;51.472;6.628;2024-03-02T08:11:52;16.00;62.30
1259;DHT22;619;51.472;6.628;2024-03-02T08:14:18;16.00;62.50
1259;DHT22;619;51.472;6.628;2024-03-02T08:16:43;16.00;62.60
1259;DHT22;619;51.472;6.628;2024-03-02T08:19:11;16.00;62.70
1259;DHT22;619;51.472;6.628;2024-03-02T08:21:39;15.90;62.70
1259;DHT22;619;51.472;6.628;2024-03-02T08:24:12;15.90;62.80
1259;DHT22;619;51.472;6.628;2024-03-02T08:26:40;15.90;62.80
1259;DHT22;619;51.472;6.628;2024-03-02T08:29:08;15.90;63.00
1259;DHT22;619;51.472;6.628;2024-03-02T08:31:36;15.90;63.00
1259;DHT22;619;51.472;6.628;2024-03-02T08:34:04;15.90;63.30
1259;DHT22;619;51.472;6.628;2024-03-02T08:36:30;15.90;63.40
1259;DHT22;619;51.472;6.628;2024-03-02T08:38:55;16.00;63.30
1259;DHT22;619;51.472;6.628;2024-03-02T08:41:23;16.00;63.20
1259;DHT22;619;51.472;6.628;2024-03-02T08:43:51;16.10;63.20
1259;DHT22;619;51.472;6.628;2024-03-02T08:46:19;16.20;63.10
1259;DHT22;619;51.472;6.628;2024-03-02T08:48:45;16.30;63.00
1259;DHT22;619;51.472;6.628;2024-03-02T08:51:13;16.30;62.70
1259;DHT22;619;51.472;6.628;2024-03-02T08:53:41;16.40;62.50
1259;DHT22;619;51.472;6.628;2024-03-02T08:56:10;16.50;62.30
1259;DHT22;619;51.472;6.628;2024-03-02T08:58:39;16.60;62.20
1259;DHT22;619;51.472;6.628;2024-03-02T09:01:05;16.60;62.10
1259;DHT22;619;51.472;6.628;2024-03-02T09:03:34;16.60;61.90
1259;DHT22;619;51.472;6.628;2024-03-02T09:06:03;16.70;61.90
1259;DHT22;619;51.472;6.628;2024-03-02T09:08:29;16.80;61.60
1259;DHT22;619;51.472;6.628;2024-03-02T09:10:55;16.90;61.50
1259;DHT22;619;51.472;6.628;2024-03-02T09:13:21;16.90;61.20
1259;DHT22;619;51.472;6.628;2024-03-02T09:15:47;17.00;61.30
1259;DHT22;619;51.472;6.628;2024-03-02T09:18:13;17.00;61.00
1259;DHT22;619;51.472;6.628;2024-03-02T09:20:41;17.10;60.70
1259;DHT22;619;51.472;6.628;2024-03-02T09:23:07;17.20;60.70
1259;DHT22;619;51.472;6.628;2024-03-02T09:25:37;17.10;60.60
1259;DHT22;619;51.472;6.628;2024-03-02T09:28:05;17.20;60.70
1259;DHT22;619;51.472;6.628;2024-03-02T09:30:34;17.20;60.50
1259;DHT22;619;51.472;6.628;2024-03-02T09:33:02;17.30;60.50
1259;DHT22;619;51.472;6.628;2024-03-02T09:35:27;17.40;60.40
1259;DHT22;619;51.472;6.628;2024-03-02T09:37:55;17.40;60.10
1259;DHT22;619;51.472;6.628;2024-03-02T09:40:22;17.50;60.20
1259;DHT22;619;51.472;6.628;2024-03-02T09:42:51;17.60;60.40
1259;DHT22;619;51.472;6.628;2024-03-02T09:45:24;17.70;59.70
1259;DHT22;619;51.472;6.628;2024-03-02T09:47:52;17.80;59.70
1259;DHT22;619;51.472;6.628;2024-03-02T09:50:18;17.90;59.80
1259;DHT22;619;51.472;6.628;2024-03-02T09:52:52;17.90;59.30
1259;DHT22;619;51.472;6.628;2024-03-02T09:55:20;18.00;59.30
1259;DHT22;619;51.472;6.628;2024-03-02T09:57:48;18.20;59.40
1259;DHT22;619;51.472;6.628;2024-03-02T10:00:15;18.30;58.70
1259;DHT22;619;51.472;6.628;2024-03-02T10:02:44;18.40;58.30
1259;DHT22;619;51.472;6.628;2024-03-02T10:05:23;18.50;57.70
1259;DHT22;619;51.472;6.628;2024-03-02T10:08:05;18.60;57.70
1259;DHT22;619;51.472;6.628;2024-03-02T10:10:38;18.70;57.70
1259;DHT22;619;51.472;6.628;2024-03-02T10:13:11;18.80;56.80
1259;DHT22;619;51.472;6.628;2024-03-02T10:15:41;18.90;56.60
1259;DHT22;619;51.472;6.628;2024-03-02T10:18:11;19.00;56.40
1259;DHT22;619;51.472;6.628;2024-03-02T10:20:38;19.20;56.30
1259;DHT22;619;51.472;6.628;2024-03-02T10:23:11;19.30;55.60
1259;DHT22;619;51.472;6.628;2024-03-02T10:25:37;19.40;55.70
1259;DHT22;619;51.472;6.628;2024-03-02T10:28:05;19.50;55.50
1259;DHT22;619;51.472;6.628;2024-03-02T10:30:32;19.60;55.30
1259;DHT22;619;51.472;6.628;2024-03-02T10:32:58;19.60;55.00
1259;DHT22;619;51.472;6.628;2024-03-02T10:35:24;19.60;54.70
1259;DHT22;619;51.472;6.628;2024-03-02T10:37:51;19.70;54.90
1259;DHT22;619;51.472;6.628;2024-03-02T10:40:22;19.70;54.60
1259;DHT22;619;51.472;6.628;2024-03-02T10:42:50;19.80;54.40
1259;DHT22;619;51.472;6.628;2024-03-02T10:45:20;19.80;54.00
1259;DHT22;619;51.472;6.628;2024-03-02T10:47:52;19.90;54.30
1259;DHT22;619;51.472;6.628;2024-03-02T10:50:18;19.90;54.10
1259;DHT22;619;51.472;6.628;2024-03-02T10:52:44;19.90;54.20
1259;DHT22;619;51.472;6.628;2024-03-02T10:55:12;19.90;54.10
1259;DHT22;619;51.472;6.628;2024-03-02T10:57:42;19.90;54.00
1259;DHT22;619;51.472;6.628;2024-03-02T11:00:11;19.90;54.10
1259;DHT22;619;51.472;6.628;2024-03-02T11:02:42;19.90;54.60
1259;DHT22;619;51.472;6.628;2024-03-02T11:05:12;19.90;54.70
1259;DHT22;619;51.472;6.628;2024-03-02T11:07:41;20.00;54.50
1259;DHT22;619;51.472;6.628;2024-03-02T11:10:09;20.00;54.50
1259;DHT22;619;51.472;6.628;2024-03-02T11:12:46;20.10;54.50
1259;DHT22;619;51.472;6.628;2024-03-02T11:15:17;20.10;54.40
1259;DHT22;619;51.472;6.628;2024-03-02T11:17:45;20.20;54.70
1259;DHT22;619;51.472;6.628;2024-03-02T11:20:12;20.30;54.90
1259;DHT22;619;51.472;6.628;2024-03-02T11:22:42;20.50;54.60
1259;DHT22;619;51.472;6.628;2024-03-02T11:25:27;20.50;54.40
1259;DHT22;619;51.472;6.628;2024-03-02T11:35:54;21.00;54.00
1259;DHT22;619;51.472;6.628;2024-03-02T11:38:27;21.10;53.60
1259;DHT22;619;51.472;6.628;2024-03-02T11:40:55;21.00;53.40
1259;DHT22;619;51.472;6.628;2024-03-02T11:43:21;21.10;53.20
1259;DHT22;619;51.472;6.628;2024-03-02T11:45:46;21.20;53.20
1259;DHT22;619;51.472;6.628;2024-03-02T11:48:22;21.40;54.10
1259;DHT22;619;51.472;6.628;2024-03-02T11:50:50;21.50;53.00
1259;DHT22;619;51.472;6.628;2024-03-02T11:53:19;21.60;52.90
1259;DHT22;619;51.472;6.628;2024-03-02T11:55:45;21.80;52.30
1259;DHT22;619;51.472;6.628;2024-03-02T11:58:14;21.80;51.90
1259;DHT22;619;51.472;6.628;2024-03-02T12:00:43;21.90;51.50
1259;DHT22;619;51.472;6.628;2024-03-02T12:03:13;22.00;51.40
1259;DHT22;619;51.472;6.628;2024-03-02T12:05:39;22.00;51.20
1259;DHT22;619;51.472;6.628;2024-03-02T12:08:08;22.00;51.30
1259;DHT22;619;51.472;6.628;2024-03-02T12:10:36;22.00;51.50
1259;DHT22;619;51.472;6.628;2024-03-02T12:13:07;22.10;51.70
1259;DHT22;619;51.472;6.628;2024-03-02T12:15:39;22.20;51.60
1259;DHT22;619;51.472;6.628;2024-03-02T12:18:06;22.20;51.70
1259;DHT22;619;51.472;6.628;2024-03-02T12:20:34;22.20;51.30
1259;DHT22;619;51.472;6.628;2024-03-02T12:23:04;22.10;51.10
1259;DHT22;619;51.472;6.628;2024-03-02T12:25:31;22.00;51.30
1259;DHT22;619;51.472;6.628;2024-03-02T12:28:02;21.90;51.40
1259;DHT22;619;51.472;6.628;2024-03-02T12:30:32;21.80;51.40
1259;DHT22;619;51.472;6.628;2024-03-02T12:33:00;21.80;51.50
1259;DHT22;619;51.472;6.628;2024-03-02T12:35:26;21.70;51.20
1259;DHT22;619;51.472;6.628;2024-03-02T12:37:53;21.60;51.50
1259;DHT22;619;51.472;6.628;2024-03-02T12:40:20;21.70;52.00
1259;DHT22;619;51.472;6.628;2024-03-02T12:42:48;21.70;52.20
1259;DHT22;619;51.472;6.628;2024-03-02T12:45:17;21.80;52.20
1259;DHT22;619;51.472;6.628;2024-03-02T12:47:49;21.90;52.10
1259;DHT22;619;51.472;6.628;2024-03-02T12:50:14;22.00;52.00
1259;DHT22;619;51.472;6.628;2024-03-02T12:52:40;22.20;51.80
1259;DHT22;619;51.472;6.628;2024-03-02T12:55:06;22.20;51.40
1259;DHT22;619;51.472;6.628;2024-03-02T12:57:35;22.20;51.30
1259;DHT22;619;51.472;6.628;2024-03-02T13:00:02;22.30;51.40
1259;DHT22;619;51.472;6.628;2024-03-02T13:02:39;22.40;51.30
1259;DHT22;619;51.472;6.628;2024-03-02T13:05:06;22.40;51.20
1259;DHT22;619;51.472;6.628;2024-03-02T13:07:38;22.50;51.50
1259;DHT22;619;51.472;6.628;2024-03-02T13:10:05;22.60;51.40
1259;DHT22;619;51.472;6.628;2024-03-02T13:12:31;22.60;51.00
1259;DHT22;619;51.472;6.628;2024-03-02T13:15:00;22.60;50.80
1259;DHT22;619;51.472;6.628;2024-03-02T13:17:25;22.70;50.80
1259;DHT22;619;51.472;6.628;2024-03-02T13:22:18;22.80;51.00
1259;DHT22;619;51.472;6.628;2024-03-02T13:24:44;22.80;50.70
1259;DHT22;619;51.472;6.628;2024-03-02T13:27:09;22.80;50.70
1259;DHT22;619;51.472;6.628;2024-03-02T13:29:35;22.80;50.70
1259;DHT22;619;51.472;6.628;2024-03-02T13:32:01;22.80;50.30
1259;DHT22;619;51.472;6.628;2024-03-02T13:34:26;22.80;50.40
1259;DHT22;619;51.472;6.628;2024-03-02T13:36:52;22.80;50.50
1259;DHT22;619;51.472;6.628;2024-03-02T13:39:19;22.90;50.70
1259;DHT22;619;51.472;6.628;2024-03-02T13:41:48;22.90;50.40
1259;DHT22;619;51.472;6.628;2024-03-02T13:44:20;22.90;50.30
1259;DHT22;619;51.472;6.628;2024-03-02T13:46:49;22.90;50.60
1259;DHT22;619;51.472;6.628;2024-03-02T13:49:14;22.90;50.40
1259;DHT22;619;51.472;6.628;2024-03-02T13:51:40;23.00;50.70
1259;DHT22;619;51.472;6.628;2024-03-02T13:54:06;22.90;50.70
1259;DHT22;619;51.472;6.628;2024-03-02T13:56:31;22.90;50.60
1259;DHT22;619;51.472;6.628;2024-03-02T13:58:58;22.90;50.80
1259;DHT22;619;51.472;6.628;2024-03-02T14:01:24;22.90;51.00
1259;DHT22;619;51.472;6.628;2024-03-02T14:03:53;22.90;51.20
1259;DHT22;619;51.472;6.628;2024-03-02T14:06:20;22.80;51.00
1259;DHT22;619;51.472;6.628;2024-03-02T14:08:46;22.80;50.80
1259;DHT22;619;51.472;6.628;2024-03-02T14:11:16;22.80;50.80
1259;DHT22;619;51.472;6.628;2024-03-02T14:13:43;22.80;50.70
1259;DHT22;619;51.472;6.628;2024-03-02T14:16:10;22.80;50.80
1259;DHT22;619;51.472;6.628;2024-03-02T14:18:36;22.80;51.30
1259;DHT22;619;51.472;6.628;2024-03-02T14:21:01;22.80;51.00
1259;DHT22;619;51.472;6.628;2024-03-02T14:23:31;22.80;50.90
1259;DHT22;619;51.472;6.628;2024-03-02T14:25:57;22.80;51.10
1259;DHT22;619;51.472;6.628;2024-03-02T14:28:27;22.80;50.90
1259;DHT22;619;51.472;6.628;2024-03-02T14:30:53;22.80;50.70
1259;DHT22;619;51.472;6.628;2024-03-02T14:33:19;22.80;50.80
1259;DHT22;619;51.472;6.628;2024-03-02T14:35:45;22.90;51.10
1259;DHT22;619;51.472;6.628;2024-03-02T14:38:11;22.90;50.90
1259;DHT22;619;51.472;6.628;2024-03-02T14:40:37;22.90;50.80
1259;DHT22;619;51.472;6.628;2024-03-02T14:43:06;22.80;50.80
1259;DHT22;619;51.472;6.628;2024-03-02T14:45:32;22.80;50.70
1259;DHT22;619;51.472;6.628;2024-03-02T14:47:57;22.80;50.90
1259;DHT22;619;51.472;6.628;2024-03-02T14:50:28;22.70;50.70
1259;DHT22;619;51.472;6.628;2024-03-02T14:52:54;22.60;50.70
1259;DHT22;619;51.472;6.628;2024-03-02T14:55:22;22.50;50.90
1259;DHT22;619;51.472;6.628;2024-03-02T14:57:49;22.50;51.20
1259;DHT22;619;51.472;6.628;2024-03-02T15:00:19;22.40;51.10
1259;DHT22;619;51.472;6.628;2024-03-02T15:02:49;22.30;51.10
1259;DHT22;619;51.472;6.628;2024-03-02T15:05:15;22.10;51.40
1259;DHT22;619;51.472;6.628;2024-03-02T15:07:43;22.00;51.30
1259;DHT22;619;51.472;6.628;2024-03-02T15:10:09;21.90;51.50
1259;DHT22;619;51.472;6.628;2024-03-02T15:12:37;21.90;51.80
1259;DHT22;619;51.472;6.628;2024-03-02T15:15:06;21.90;51.80
1259;DHT22;619;51.472;6.628;2024-03-02T15:17:36;21.90;51.80
1259;DHT22;619;51.472;6.628;2024-03-02T15:20:04;21.90;52.10
1259;DHT22;619;51.472;6.628;2024-03-02T15:22:35;22.00;52.00
1259;DHT22;619;51.472;6.628;2024-03-02T15:25:00;22.00;52.00
1259;DHT22;619;51.472;6.628;2024-03-02T15:27:26;22.00;51.90
1259;DHT22;619;51.472;6.628;2024-03-02T15:29:53;22.00;51.60
1259;DHT22;619;51.472;6.628;2024-03-02T15:32:21;21.90;51.50
1259;DHT22;619;51.472;6.628;2024-03-02T15:34:47;21.90;51.80
1259;DHT22;619;51.472;6.628;2024-03-02T15:37:13;22.00;52.00
1259;DHT22;619;51.472;6.628;2024-03-02T15:39:38;22.00;51.90
1259;DHT22;619;51.472;6.628;2024-03-02T15:42:06;22.10;52.20
1259;DHT22;619;51.472;6.628;2024-03-02T15:44:32;22.20;52.00
1259;DHT22;619;51.472;6.628;2024-03-02T15:47:00;22.30;51.90
1259;DHT22;619;51.472;6.628;2024-03-02T15:49:26;22.40;51.80
1259;DHT22;619;51.472;6.628;2024-03-02T15:51:52;22.50;51.80
1259;DHT22;619;51.472;6.628;2024-03-02T15:54:18;22.60;51.60
1259;DHT22;619;51.472;6.628;2024-03-02T15:56:44;22.60;51.20
1259;DHT22;619;51.472;6.628;2024-03-02T15:59:09;22.50;50.60
1259;DHT22;619;51.472;6.628;2024-03-02T16:01:35;22.50;50.80
1259;DHT22;619;51.472;6.628;2024-03-02T16:04:01;22.40;51.00
1259;DHT22;619;51.472;6.628;2024-03-02T16:06:29;22.30;51.10
1259;DHT22;619;51.472;6.628;2024-03-02T16:08:54;22.20;51.20
1259;DHT22;619;51.472;6.628;2024-03-02T16:11:22;22.10;51.20
1259;DHT22;619;51.472;6.628;2024-03-02T16:13:48;22.00;51.30
1259;DHT22;619;51.472;6.628;2024-03-02T16:16:16;21.90;51.40
1259;DHT22;619;51.472;6.628;2024-03-02T16:18:42;21.70;51.60
1259;DHT22;619;51.472;6.628;2024-03-02T16:21:08;21.60;51.70
1259;DHT22;619;51.472;6.628;2024-03-02T16:23:34;21.60;51.90
1259;DHT22;619;51.472;6.628;2024-03-02T16:26:00;21.50;52.00
1259;DHT22;619;51.472;6.628;2024-03-02T16:28:26;21.40;51.90
1259;DHT22;619;51.472;6.628;2024-03-02T16:30:51;21.40;52.10